createdAt,value
2023-02-27T00:00:39.994Z,-4.4
2023-02-27T00:01:39.994Z,-4.4
2023-02-27T00:02:40.029Z,-4.5
2023-02-27T00:03:40.013Z,-4.5
2023-02-27T00:04:39.992Z,-4.5
2023-02-27T00:05:39.985Z,-4.5
2023-02-27T00:06:39.988Z,-4.5
2023-02-27T00:07:39.996Z,-4.5
2023-02-27T00:08:40.007Z,-4.5
2023-02-27T00:09:39.988Z,-4.5
2023-02-27T00:10:39.996Z,-4.4
2023-02-27T00:11:40.068Z,-4.4
2023-02-27T00:12:39.987Z,-4.4
2023-02-27T00:13:39.998Z,-4.4
2023-02-27T00:14:40.002Z,-4.3
2023-02-27T00:15:39.985Z,-4.3
2023-02-27T00:16:39.997Z,-4.3
2023-02-27T00:17:39.995Z,-4.2
2023-02-27T00:18:39.990Z,-4.2
2023-02-27T00:19:39.988Z,-4.2
2023-02-27T00:20:39.991Z,-4.2
2023-02-27T00:21:39.987Z,-4.2
2023-02-27T00:22:39.991Z,-4.2
2023-02-27T00:23:39.999Z,-4.1
2023-02-27T00:24:39.996Z,-4.1
2023-02-27T00:25:39.987Z,-4.1
2023-02-27T00:26:40.091Z,-4.1
2023-02-27T00:27:39.998Z,-4.1
2023-02-27T00:28:39.989Z,-4.1
2023-02-27T00:29:39.988Z,-4.1
2023-02-27T00:30:40.058Z,-4.2
2023-02-27T00:31:40.014Z,-4.2
2023-02-27T00:32:39.991Z,-4.2
2023-02-27T00:33:39.982Z,-4.2
2023-02-27T00:34:40.023Z,-4.2
2023-02-27T00:35:39.995Z,-4.2
2023-02-27T00:36:39.988Z,-4.3
2023-02-27T00:37:40.009Z,-4.3
2023-02-27T00:38:39.996Z,-4.4
2023-02-27T00:39:40.001Z,-4.4
2023-02-27T00:40:39.986Z,-4.5
2023-02-27T00:41:39.991Z,-4.5
2023-02-27T00:42:39.982Z,-4.6
2023-02-27T00:43:39.981Z,-4.6
2023-02-27T00:44:40.003Z,-4.6
2023-02-27T00:45:39.980Z,-4.6
2023-02-27T00:46:40.069Z,-4.6
2023-02-27T00:47:39.984Z,-4.6
2023-02-27T00:48:40.004Z,-4.7
2023-02-27T00:49:40.106Z,-4.7
2023-02-27T00:50:39.986Z,-4.7
2023-02-27T00:51:39.983Z,-4.7
2023-02-27T00:52:40.096Z,-4.7
2023-02-27T00:53:40.250Z,-4.7
2023-02-27T00:54:40.832Z,-4.7
2023-02-27T00:55:41.397Z,-4.7
2023-02-27T00:56:40.262Z,-4.7
2023-02-27T00:57:39.989Z,-4.7
2023-02-27T00:58:39.994Z,-4.7
2023-02-27T00:59:39.994Z,-4.7
2023-02-27T01:00:40.039Z,-4.7
2023-02-27T01:01:39.980Z,-4.7
2023-02-27T01:02:40.015Z,-4.8
2023-02-27T01:03:39.986Z,-4.8
2023-02-27T01:04:39.989Z,-4.8
2023-02-27T01:05:39.988Z,-4.9
2023-02-27T01:06:39.987Z,-4.9
2023-02-27T01:07:40.186Z,-4.9
2023-02-27T01:08:39.984Z,-4.9
2023-02-27T01:09:39.990Z,-5
2023-02-27T01:10:40.046Z,-5
2023-02-27T01:11:40.302Z,-5
2023-02-27T01:12:40.645Z,-5
2023-02-27T01:13:39.993Z,-5
2023-02-27T01:14:40.258Z,-5
2023-02-27T01:15:40.026Z,-5.1
2023-02-27T01:16:40.345Z,-5.1
2023-02-27T01:17:39.990Z,-5.2
2023-02-27T01:18:40.273Z,-5.2
2023-02-27T01:19:40.078Z,-5.2
2023-02-27T01:20:40.274Z,-5.2
2023-02-27T01:21:40.685Z,-5.2
2023-02-27T01:22:40.006Z,-5.2
2023-02-27T01:23:40.116Z,-5.3
2023-02-27T01:24:40.020Z,-5.3
2023-02-27T01:25:40.085Z,-5.3
2023-02-27T01:26:40.287Z,-5.3
2023-02-27T01:27:40.156Z,-5.3
2023-02-27T01:28:39.992Z,-5.3
2023-02-27T01:29:40.000Z,-5.3
2023-02-27T01:30:40.027Z,-5.3
2023-02-27T01:31:40.053Z,-5.4
2023-02-27T01:32:40.063Z,-5.4
2023-02-27T01:33:39.993Z,-5.4
2023-02-27T01:34:40.007Z,-5.4
2023-02-27T01:35:40.016Z,-5.4
2023-02-27T01:36:39.994Z,-5.4
2023-02-27T01:37:39.991Z,-5.4
2023-02-27T01:38:40.007Z,-5.4
2023-02-27T01:39:39.988Z,-5.4
2023-02-27T01:40:39.988Z,-5.4
2023-02-27T01:41:39.984Z,-5.4
2023-02-27T01:42:39.991Z,-5.4
2023-02-27T01:43:40.005Z,-5.4
2023-02-27T01:44:40.013Z,-5.4
2023-02-27T01:45:40.063Z,-5.3
2023-02-27T01:46:39.993Z,-5.3
2023-02-27T01:47:40.040Z,-5.3
2023-02-27T01:48:39.994Z,-5.2
2023-02-27T01:49:39.997Z,-5.2
2023-02-27T01:50:39.989Z,-5.2
2023-02-27T01:51:39.991Z,-5.2
2023-02-27T01:52:40.011Z,-5.2
2023-02-27T01:53:39.991Z,-5.2
2023-02-27T01:54:39.987Z,-5.2
2023-02-27T01:55:39.992Z,-5.2
2023-02-27T01:56:40.246Z,-5.2
2023-02-27T01:57:40.022Z,-5.2
2023-02-27T01:58:39.989Z,-5.2
2023-02-27T01:59:39.987Z,-5.2
2023-02-27T02:00:39.996Z,-5.2
2023-02-27T02:01:40.199Z,-5.2
2023-02-27T02:02:40.006Z,-5.2
2023-02-27T02:03:39.992Z,-5.2
2023-02-27T02:04:39.991Z,-5.2
2023-02-27T02:05:39.989Z,-5.2
2023-02-27T02:06:39.993Z,-5.2
2023-02-27T02:07:40.006Z,-5.2
2023-02-27T02:08:39.996Z,-5.2
2023-02-27T02:09:39.990Z,-5.3
2023-02-27T02:10:39.986Z,-5.3
2023-02-27T02:11:39.988Z,-5.3
2023-02-27T02:12:40.021Z,-5.3
2023-02-27T02:13:39.992Z,-5.4
2023-02-27T02:14:40.051Z,-5.4
2023-02-27T02:15:39.992Z,-5.4
2023-02-27T02:16:40.019Z,-5.4
2023-02-27T02:17:40.026Z,-5.4
2023-02-27T02:18:39.986Z,-5.4
2023-02-27T02:19:39.984Z,-5.4
2023-02-27T02:20:40.055Z,-5.5
2023-02-27T02:21:39.988Z,-5.5
2023-02-27T02:22:40.002Z,-5.5
2023-02-27T02:23:40.000Z,-5.5
2023-02-27T02:24:40.018Z,-5.6
2023-02-27T02:25:39.993Z,-5.6
2023-02-27T02:26:39.994Z,-5.6
2023-02-27T02:27:39.996Z,-5.6
2023-02-27T02:28:39.992Z,-5.6
2023-02-27T02:29:39.991Z,-5.6
2023-02-27T02:30:40.079Z,-5.6
2023-02-27T02:31:40.104Z,-5.6
2023-02-27T02:32:39.995Z,-5.6
2023-02-27T02:33:39.989Z,-5.6
2023-02-27T02:34:39.990Z,-5.6
2023-02-27T02:35:39.993Z,-5.6
2023-02-27T02:36:40.014Z,-5.7
2023-02-27T02:37:39.993Z,-5.7
2023-02-27T02:38:39.984Z,-5.7
2023-02-27T02:39:40.000Z,-5.7
2023-02-27T02:40:39.993Z,-5.7
2023-02-27T02:41:39.988Z,-5.7
2023-02-27T02:42:40.196Z,-5.7
2023-02-27T02:43:39.994Z,-5.7
2023-02-27T02:44:39.996Z,-5.7
2023-02-27T02:45:39.993Z,-5.7
2023-02-27T02:46:39.985Z,-5.7
2023-02-27T02:47:39.991Z,-5.8
2023-02-27T02:48:39.989Z,-5.8
2023-02-27T02:49:39.996Z,-5.8
2023-02-27T02:50:39.988Z,-5.8
2023-02-27T02:51:40.000Z,-5.9
2023-02-27T02:52:39.989Z,-5.9
2023-02-27T02:53:39.994Z,-5.9
2023-02-27T02:54:40.116Z,-5.9
2023-02-27T02:55:39.986Z,-5.9
2023-02-27T02:56:39.985Z,-5.9
2023-02-27T02:57:39.986Z,-5.9
2023-02-27T02:58:39.992Z,-5.9
2023-02-27T02:59:39.987Z,-6
2023-02-27T03:00:39.987Z,-6
2023-02-27T03:01:40.026Z,-6
2023-02-27T03:02:39.986Z,-6
2023-02-27T03:03:39.988Z,-6
2023-02-27T03:04:40.066Z,-6
2023-02-27T03:05:39.985Z,-6
2023-02-27T03:06:39.994Z,-6
2023-02-27T03:07:40.025Z,-6
2023-02-27T03:08:39.999Z,-6
2023-02-27T03:09:40.003Z,-6
2023-02-27T03:10:39.991Z,-6
2023-02-27T03:11:39.991Z,-6
2023-02-27T03:12:40.008Z,-6.1
2023-02-27T03:13:39.988Z,-6.1
2023-02-27T03:14:40.260Z,-6.1
2023-02-27T03:15:40.166Z,-6.1
2023-02-27T03:16:40.233Z,-6.1
2023-02-27T03:17:40.427Z,-6.1
2023-02-27T03:18:39.988Z,-6.1
2023-02-27T03:19:40.011Z,-6.1
2023-02-27T03:20:39.997Z,-6.1
2023-02-27T03:21:39.990Z,-6.1
2023-02-27T03:22:40.047Z,-6.1
2023-02-27T03:23:40.159Z,-6.1
2023-02-27T03:24:40.006Z,-6.1
2023-02-27T03:25:39.990Z,-6.1
2023-02-27T03:26:39.989Z,-6.1
2023-02-27T03:27:39.986Z,-6.1
2023-02-27T03:28:39.990Z,-6.1
2023-02-27T03:29:39.987Z,-6.1
2023-02-27T03:30:40.002Z,-6.1
2023-02-27T03:31:40.006Z,-6.1
2023-02-27T03:32:39.983Z,-6.1
2023-02-27T03:33:39.991Z,-6.1
2023-02-27T03:34:39.996Z,-6.1
2023-02-27T03:35:39.985Z,-6.1
2023-02-27T03:36:39.991Z,-6.1
2023-02-27T03:37:39.986Z,-6.1
2023-02-27T03:38:40.008Z,-6.1
2023-02-27T03:39:39.981Z,-6.1
2023-02-27T03:40:39.979Z,-6.2
2023-02-27T03:41:39.988Z,-6.2
2023-02-27T03:42:39.983Z,-6.2
2023-02-27T03:43:39.998Z,-6.2
2023-02-27T03:44:39.981Z,-6.2
2023-02-27T03:45:39.981Z,-6.2
2023-02-27T03:46:40.052Z,-6.2
2023-02-27T03:47:40.095Z,-6.3
2023-02-27T03:48:40.032Z,-6.3
2023-02-27T03:49:39.986Z,-6.3
2023-02-27T03:50:39.994Z,-6.3
2023-02-27T03:51:39.997Z,-6.3
2023-02-27T03:52:39.983Z,-6.3
2023-02-27T03:53:40.002Z,-6.3
2023-02-27T03:54:39.981Z,-6.3
2023-02-27T03:55:39.984Z,-6.3
2023-02-27T03:56:39.991Z,-6.3
2023-02-27T03:57:39.993Z,-6.3
2023-02-27T03:58:39.995Z,-6.3
2023-02-27T03:59:39.987Z,-6.3
2023-02-27T04:00:40.004Z,-6.3
2023-02-27T04:01:39.988Z,-6.3
2023-02-27T04:02:40.030Z,-6.3
2023-02-27T04:03:39.989Z,-6.3
2023-02-27T04:04:39.984Z,-6.4
2023-02-27T04:05:39.981Z,-6.4
2023-02-27T04:06:39.986Z,-6.4
2023-02-27T04:07:39.980Z,-6.4
2023-02-27T04:08:39.978Z,-6.4
2023-02-27T04:09:39.980Z,-6.4
2023-02-27T04:10:39.983Z,-6.4
2023-02-27T04:11:39.986Z,-6.4
2023-02-27T04:12:39.988Z,-6.4
2023-02-27T04:13:39.985Z,-6.4
2023-02-27T04:14:39.983Z,-6.4
2023-02-27T04:15:39.981Z,-6.4
2023-02-27T04:16:39.987Z,-6.5
2023-02-27T04:17:39.986Z,-6.5
2023-02-27T04:18:39.991Z,-6.5
2023-02-27T04:19:39.983Z,-6.5
2023-02-27T04:20:39.980Z,-6.5
2023-02-27T04:21:39.988Z,-6.5
2023-02-27T04:22:40.297Z,-6.5
2023-02-27T04:23:39.978Z,-6.5
2023-02-27T04:24:39.985Z,-6.5
2023-02-27T04:25:39.985Z,-6.5
2023-02-27T04:26:40.075Z,-6.5
2023-02-27T04:27:40.314Z,-6.5
2023-02-27T04:28:40.605Z,-6.5
2023-02-27T04:29:40.260Z,-6.5
2023-02-27T04:30:39.987Z,-6.5
2023-02-27T04:31:40.024Z,-6.5
2023-02-27T04:32:40.143Z,-6.5
2023-02-27T04:33:39.988Z,-6.5
2023-02-27T04:34:39.991Z,-6.5
2023-02-27T04:35:39.992Z,-6.5
2023-02-27T04:36:39.990Z,-6.5
2023-02-27T04:37:39.991Z,-6.5
2023-02-27T04:38:39.985Z,-6.5
2023-02-27T04:39:40.000Z,-6.5
2023-02-27T04:40:39.986Z,-6.5
2023-02-27T04:41:39.990Z,-6.5
2023-02-27T04:42:40.146Z,-6.5
2023-02-27T04:43:40.436Z,-6.5
2023-02-27T04:44:40.480Z,-6.5
2023-02-27T04:45:40.009Z,-6.5
2023-02-27T04:46:39.990Z,-6.5
2023-02-27T04:47:40.057Z,-6.5
2023-02-27T04:48:40.259Z,-6.5
2023-02-27T04:49:40.016Z,-6.5
2023-02-27T04:50:40.281Z,-6.5
2023-02-27T04:51:40.004Z,-6.5
2023-02-27T04:52:40.226Z,-6.5
2023-02-27T04:53:40.002Z,-6.5
2023-02-27T04:54:40.251Z,-6.5
2023-02-27T04:55:40.002Z,-6.5
2023-02-27T04:56:40.261Z,-6.5
2023-02-27T04:57:39.988Z,-6.5
2023-02-27T04:58:40.009Z,-6.5
2023-02-27T04:59:40.463Z,-6.6
2023-02-27T05:00:39.992Z,-6.6
2023-02-27T05:01:40.291Z,-6.6
2023-02-27T05:02:40.110Z,-6.6
2023-02-27T05:03:40.223Z,-6.6
2023-02-27T05:04:39.994Z,-6.6
2023-02-27T05:05:39.999Z,-6.6
2023-02-27T05:06:40.015Z,-6.6
2023-02-27T05:07:39.987Z,-6.6
2023-02-27T05:08:40.018Z,-6.7
2023-02-27T05:09:40.004Z,-6.7
2023-02-27T05:10:40.004Z,-6.7
2023-02-27T05:11:39.991Z,-6.7
2023-02-27T05:12:39.985Z,-6.7
2023-02-27T05:13:40.013Z,-6.7
2023-02-27T05:14:39.992Z,-6.7
2023-02-27T05:15:40.042Z,-6.7
2023-02-27T05:16:40.027Z,-6.7
2023-02-27T05:17:40.039Z,-6.7
2023-02-27T05:18:39.998Z,-6.7
2023-02-27T05:19:40.001Z,-6.7
2023-02-27T05:20:40.001Z,-6.7
2023-02-27T05:21:39.996Z,-6.7
2023-02-27T05:22:39.998Z,-6.7
2023-02-27T05:23:40.006Z,-6.6
2023-02-27T05:24:40.102Z,-6.6
2023-02-27T05:25:40.009Z,-6.6
2023-02-27T05:26:40.002Z,-6.6
2023-02-27T05:27:39.994Z,-6.6
2023-02-27T05:28:39.995Z,-6.6
2023-02-27T05:29:39.997Z,-6.7
2023-02-27T05:30:40.175Z,-6.7
2023-02-27T05:31:40.359Z,-6.7
2023-02-27T05:32:40.072Z,-6.7
2023-02-27T05:33:39.987Z,-6.7
2023-02-27T05:34:40.001Z,-6.7
2023-02-27T05:35:40.030Z,-6.7
2023-02-27T05:36:39.996Z,-6.7
2023-02-27T05:37:39.994Z,-6.7
2023-02-27T05:38:39.999Z,-6.7
2023-02-27T05:39:39.994Z,-6.7
2023-02-27T05:40:40.008Z,-6.7
2023-02-27T05:41:39.979Z,-6.7
2023-02-27T05:42:39.986Z,-6.7
2023-02-27T05:43:39.984Z,-6.7
2023-02-27T05:44:39.986Z,-6.7
2023-02-27T05:45:40.042Z,-6.7
2023-02-27T05:46:39.990Z,-6.7
2023-02-27T05:47:39.986Z,-6.7
2023-02-27T05:48:39.984Z,-6.7
2023-02-27T05:49:39.980Z,-6.7
2023-02-27T05:50:40.011Z,-6.7
2023-02-27T05:51:39.990Z,-6.7
2023-02-27T05:52:40.009Z,-6.7
2023-02-27T05:53:39.999Z,-6.7
2023-02-27T05:54:39.980Z,-6.7
2023-02-27T05:55:39.987Z,-6.7
2023-02-27T05:56:39.985Z,-6.8
2023-02-27T05:57:40.046Z,-6.8
2023-02-27T05:58:39.987Z,-6.8
2023-02-27T05:59:39.985Z,-6.8
2023-02-27T06:00:39.992Z,-6.8
2023-02-27T06:01:39.992Z,-6.8
2023-02-27T06:02:40.010Z,-6.8
2023-02-27T06:03:40.061Z,-6.8
2023-02-27T06:04:39.984Z,-6.8
2023-02-27T06:05:39.992Z,-6.8
2023-02-27T06:06:39.991Z,-6.8
2023-02-27T06:07:40.005Z,-6.8
2023-02-27T06:08:39.992Z,-6.8
2023-02-27T06:09:39.991Z,-6.9
2023-02-27T06:10:39.990Z,-6.9
2023-02-27T06:11:39.988Z,-6.9
2023-02-27T06:12:40.009Z,-6.9
2023-02-27T06:13:41.907Z,-6.9
2023-02-27T06:14:40.000Z,-6.9
2023-02-27T06:15:39.989Z,-6.8
2023-02-27T06:16:40.007Z,-6.8
2023-02-27T06:17:40.009Z,-6.8
2023-02-27T06:18:39.992Z,-6.8
2023-02-27T06:19:40.006Z,-6.8
2023-02-27T06:20:39.992Z,-6.8
2023-02-27T06:21:39.988Z,-6.8
2023-02-27T06:22:40.021Z,-6.8
2023-02-27T06:23:40.006Z,-6.8
2023-02-27T06:24:39.989Z,-6.8
2023-02-27T06:25:39.981Z,-6.8
2023-02-27T06:26:39.992Z,-6.8
2023-02-27T06:27:40.001Z,-6.8
2023-02-27T06:28:40.012Z,-6.8
2023-02-27T06:29:39.991Z,-6.8
2023-02-27T06:30:40.021Z,-6.8
2023-02-27T06:31:39.988Z,-6.8
2023-02-27T06:32:39.996Z,-6.8
2023-02-27T06:33:40.008Z,-6.7
2023-02-27T06:34:39.989Z,-6.7
2023-02-27T06:35:40.128Z,-6.7
2023-02-27T06:36:39.991Z,-6.6
2023-02-27T06:37:40.324Z,-6.6
2023-02-27T06:38:40.007Z,-6.6
2023-02-27T06:39:40.170Z,-6.5
2023-02-27T06:40:39.988Z,-6.5
2023-02-27T06:41:40.243Z,-6.5
2023-02-27T06:42:39.982Z,-6.5
2023-02-27T06:43:40.162Z,-6.4
2023-02-27T06:44:40.027Z,-6.4
2023-02-27T06:45:40.242Z,-6.4
2023-02-27T06:46:40.555Z,-6.4
2023-02-27T06:47:39.984Z,-6.4
2023-02-27T06:48:39.989Z,-6.4
2023-02-27T06:49:40.167Z,-6.3
2023-02-27T06:50:39.991Z,-6.3
2023-02-27T06:51:40.197Z,-6.3
2023-02-27T06:52:39.979Z,-6.3
2023-02-27T06:53:39.981Z,-6.3
2023-02-27T06:54:39.982Z,-6.3
2023-02-27T06:55:39.979Z,-6.3
2023-02-27T06:56:40.420Z,-6.3
2023-02-27T06:57:39.992Z,-6.3
2023-02-27T06:58:39.982Z,-6.3
2023-02-27T06:59:40.015Z,-6.3
2023-02-27T07:00:39.980Z,-6.3
2023-02-27T07:01:40.031Z,-6.3
2023-02-27T07:02:39.988Z,-6.2
2023-02-27T07:03:40.190Z,-6.2
2023-02-27T07:04:40.011Z,-6.2
2023-02-27T07:05:39.990Z,-6.2
2023-02-27T07:07:33.592Z,-6.1
2023-02-27T07:07:40.030Z,-6.1
2023-02-27T07:09:00.842Z,-6.1
2023-02-27T07:09:39.998Z,-6.1
2023-02-27T07:10:40.013Z,-6
2023-02-27T07:11:39.981Z,-6
2023-02-27T07:12:39.987Z,-5.9
2023-02-27T07:13:39.985Z,-5.9
2023-02-27T07:14:39.989Z,-5.9
2023-02-27T07:15:40.030Z,-5.9
2023-02-27T07:16:39.982Z,-5.9
2023-02-27T07:17:39.998Z,-5.8
2023-02-27T07:18:39.980Z,-5.8
2023-02-27T07:19:39.983Z,-5.7
2023-02-27T07:20:40.007Z,-5.7
2023-02-27T07:21:40.003Z,-5.7
2023-02-27T07:22:39.978Z,-5.7
2023-02-27T07:23:39.983Z,-5.6
2023-02-27T07:24:39.981Z,-5.6
2023-02-27T07:25:40.002Z,-5.6
2023-02-27T07:26:39.986Z,-5.6
2023-02-27T07:27:39.980Z,-5.5
2023-02-27T07:28:40.051Z,-5.4
2023-02-27T07:29:39.983Z,-5.4
2023-02-27T07:30:40.036Z,-5.4
2023-02-27T07:31:39.988Z,-5.3
2023-02-27T07:32:39.983Z,-5.2
2023-02-27T07:33:39.984Z,-5.2
2023-02-27T07:34:39.978Z,-5.2
2023-02-27T07:35:40.074Z,-5.2
2023-02-27T07:36:39.980Z,-5.1
2023-02-27T07:37:39.985Z,-5
2023-02-27T07:38:39.987Z,-5
2023-02-27T07:39:39.987Z,-5
2023-02-27T07:40:40.002Z,-4.9
2023-02-27T07:41:39.987Z,-4.9
2023-02-27T07:42:39.983Z,-4.8
2023-02-27T07:43:39.984Z,-4.7
2023-02-27T07:44:39.993Z,-4.6
2023-02-27T07:45:40.173Z,-4.6
2023-02-27T07:46:40.010Z,-4.6
2023-02-27T07:47:39.986Z,-4.5
2023-02-27T07:48:39.982Z,-4.4
2023-02-27T07:49:39.992Z,-4.4
2023-02-27T07:50:39.984Z,-4.3
2023-02-27T07:51:39.997Z,-4.2
2023-02-27T07:52:40.001Z,-4.2
2023-02-27T07:53:39.988Z,-4.2
2023-02-27T07:54:40.006Z,-4.1
2023-02-27T07:55:39.994Z,-4
2023-02-27T07:56:40.000Z,-3.9
2023-02-27T07:57:39.998Z,-3.8
2023-02-27T07:58:39.986Z,-3.8
2023-02-27T07:59:40.005Z,-3.7
2023-02-27T08:00:39.984Z,-3.7
2023-02-27T08:01:39.992Z,-3.6
2023-02-27T08:02:40.063Z,-3.5
2023-02-27T08:03:40.807Z,-3.5
2023-02-27T08:04:40.016Z,-3.4
2023-02-27T08:05:39.996Z,-3.3
2023-02-27T08:06:39.990Z,-3.2
2023-02-27T08:07:39.997Z,-3.1
2023-02-27T08:08:39.987Z,-3.1
2023-02-27T08:09:39.983Z,-3.1
2023-02-27T08:10:39.992Z,-3
2023-02-27T08:11:39.993Z,-3
2023-02-27T08:12:40.008Z,-2.9
2023-02-27T08:13:59.387Z,-2.8
2023-02-27T08:14:39.998Z,-2.8
2023-02-27T08:15:39.992Z,-2.8
2023-02-27T08:16:40.034Z,-2.7
2023-02-27T08:17:39.983Z,-2.6
2023-02-27T08:18:39.994Z,-2.6
2023-02-27T08:19:39.985Z,-2.5
2023-02-27T08:20:40.009Z,-2.5
2023-02-27T08:21:39.992Z,-2.5
2023-02-27T08:22:39.991Z,-2.4
2023-02-27T08:23:41.742Z,-2.3
2023-02-27T08:24:39.996Z,-2.3
2023-02-27T08:25:39.996Z,-2.2
2023-02-27T08:26:40.171Z,-2.2
2023-02-27T08:27:39.992Z,-2.2
2023-02-27T08:28:39.994Z,-2.1
2023-02-27T08:29:39.983Z,-2.1
2023-02-27T08:30:39.990Z,-2
2023-02-27T08:31:40.020Z,-2
2023-02-27T08:32:40.025Z,-2
2023-02-27T08:33:40.216Z,-1.9
2023-02-27T08:34:40.495Z,-1.9
2023-02-27T08:35:40.052Z,-1.8
2023-02-27T08:36:40.129Z,-1.8
2023-02-27T08:37:39.982Z,-1.7
2023-02-27T08:38:40.145Z,-1.7
2023-02-27T08:39:39.985Z,-1.7
2023-02-27T08:40:39.994Z,-1.7
2023-02-27T08:41:39.997Z,-1.7
2023-02-27T08:42:39.992Z,-1.6
2023-02-27T08:43:40.005Z,-1.6
2023-02-27T08:44:39.988Z,-1.5
2023-02-27T08:45:40.007Z,-1.5
2023-02-27T08:46:39.987Z,-1.5
2023-02-27T08:47:39.980Z,-1.5
2023-02-27T08:48:40.007Z,-1.4
2023-02-27T08:49:39.984Z,-1.4
2023-02-27T08:50:39.983Z,-1.3
2023-02-27T08:51:39.992Z,-1.3
2023-02-27T08:52:39.988Z,-1.2
2023-02-27T08:53:39.997Z,-1.2
2023-02-27T08:54:39.988Z,-1.2
2023-02-27T08:55:40.169Z,-1.2
2023-02-27T08:56:39.978Z,-1.2
2023-02-27T08:57:39.980Z,-1.1
2023-02-27T08:58:39.993Z,-1.1
2023-02-27T08:59:39.982Z,-1.1
2023-02-27T09:00:40.011Z,-1
2023-02-27T09:01:39.985Z,-1
2023-02-27T09:02:40.010Z,-1
2023-02-27T09:03:39.984Z,-1
2023-02-27T09:04:39.992Z,-0.9
2023-02-27T09:05:40.127Z,-0.9
2023-02-27T09:06:39.984Z,-0.8
2023-02-27T09:07:39.989Z,-0.8
2023-02-27T09:08:39.984Z,-0.8
2023-02-27T09:09:40.004Z,-0.8
2023-02-27T09:10:39.988Z,-0.8
2023-02-27T09:11:39.986Z,-0.7
2023-02-27T09:12:40.002Z,-0.7
2023-02-27T09:13:40.233Z,-0.7
2023-02-27T09:14:40.142Z,-0.6
2023-02-27T09:15:39.985Z,-0.6
2023-02-27T09:16:40.164Z,-0.6
2023-02-27T09:17:39.997Z,-0.5
2023-02-27T09:18:40.129Z,-0.5
2023-02-27T09:19:39.994Z,-0.5
2023-02-27T09:20:40.227Z,-0.5
2023-02-27T09:21:39.990Z,-0.5
2023-02-27T09:22:40.285Z,-0.4
2023-02-27T09:23:40.131Z,-0.4
2023-02-27T09:24:39.985Z,-0.3
2023-02-27T09:25:39.990Z,-0.3
2023-02-27T09:26:45.853Z,-0.3
2023-02-27T09:27:40.010Z,-0.3
2023-02-27T09:28:40.019Z,-0.2
2023-02-27T09:29:39.982Z,-0.2
2023-02-27T09:30:39.987Z,-0.1
2023-02-27T09:31:40.007Z,-0.1
2023-02-27T09:32:40.039Z,-0.1
2023-02-27T09:33:40.023Z,0
2023-02-27T09:34:40.009Z,0.1
2023-02-27T09:35:40.049Z,0.1
2023-02-27T09:36:39.985Z,0.1
2023-02-27T09:37:39.982Z,0.2
2023-02-27T09:38:41.372Z,0.2
2023-02-27T09:39:39.984Z,0.3
2023-02-27T09:40:39.985Z,0.4
2023-02-27T09:41:39.988Z,0.5
2023-02-27T09:42:39.992Z,0.5
2023-02-27T09:43:40.003Z,0.5
2023-02-27T09:44:46.517Z,0.6
2023-02-27T09:45:40.049Z,0.6
2023-02-27T09:46:39.985Z,0.7
2023-02-27T09:47:39.986Z,0.8
2023-02-27T09:48:39.998Z,0.8
2023-02-27T09:49:40.015Z,0.8
2023-02-27T09:50:40.089Z,0.9
2023-02-27T09:51:39.984Z,1
2023-02-27T09:52:39.989Z,1.1
2023-02-27T09:53:40.003Z,1.1
2023-02-27T09:54:39.998Z,1.2
2023-02-27T09:55:39.997Z,1.4
2023-02-27T09:56:39.994Z,1.4
2023-02-27T09:57:39.984Z,1.6
2023-02-27T09:58:39.990Z,1.8
2023-02-27T09:59:39.992Z,1.8
2023-02-27T10:00:39.988Z,2
2023-02-27T10:01:39.999Z,2.1
2023-02-27T10:02:40.032Z,2.1
2023-02-27T10:03:40.070Z,2.2
2023-02-27T10:04:40.082Z,2.2
2023-02-27T10:05:39.987Z,2.3
2023-02-27T10:06:39.987Z,2.3
2023-02-27T10:07:39.991Z,2.4
2023-02-27T10:08:39.989Z,2.5
2023-02-27T10:09:39.994Z,2.5
2023-02-27T10:10:39.989Z,2.5
2023-02-27T10:11:39.987Z,2.5
2023-02-27T10:12:39.989Z,2.6
2023-02-27T10:13:39.984Z,2.6
2023-02-27T10:14:39.987Z,2.6
2023-02-27T10:15:39.986Z,2.7
2023-02-27T10:16:40.045Z,2.7
2023-02-27T10:17:40.098Z,2.6
2023-02-27T10:18:39.983Z,2.6
2023-02-27T10:19:39.989Z,2.6
2023-02-27T10:20:39.987Z,2.6
2023-02-27T10:21:39.986Z,2.6
2023-02-27T10:22:39.986Z,2.6
2023-02-27T10:23:39.989Z,2.6
2023-02-27T10:24:40.187Z,2.6
2023-02-27T10:25:40.382Z,2.6
2023-02-27T10:26:40.002Z,2.6
2023-02-27T10:27:39.990Z,2.6
2023-02-27T10:28:39.992Z,2.6
2023-02-27T10:29:39.987Z,2.6
2023-02-27T10:30:40.095Z,2.6
2023-02-27T10:31:39.998Z,2.6
2023-02-27T10:32:40.008Z,2.6
2023-02-27T10:33:39.984Z,2.6
2023-02-27T10:34:40.010Z,2.6
2023-02-27T10:35:40.033Z,2.5
2023-02-27T10:36:40.049Z,2.6
2023-02-27T10:37:39.992Z,2.6
2023-02-27T10:38:39.990Z,2.6
2023-02-27T10:39:39.996Z,2.6
2023-02-27T10:40:39.996Z,2.7
2023-02-27T10:41:40.166Z,2.7
2023-02-27T10:42:41.637Z,2.6
2023-02-27T10:43:40.030Z,2.6
2023-02-27T10:44:40.004Z,2.6
2023-02-27T10:45:39.996Z,2.7
2023-02-27T10:46:40.034Z,2.6
2023-02-27T10:47:39.986Z,2.7
2023-02-27T10:48:39.996Z,2.7
2023-02-27T10:49:39.989Z,2.7
2023-02-27T10:50:39.993Z,2.7
2023-02-27T10:51:39.993Z,2.7
2023-02-27T10:52:41.139Z,2.7
2023-02-27T10:53:39.993Z,2.8
2023-02-27T10:54:39.992Z,2.8
2023-02-27T10:55:39.984Z,2.8
2023-02-27T10:56:39.986Z,2.8
2023-02-27T10:57:39.989Z,2.9
2023-02-27T10:58:40.001Z,2.9
2023-02-27T10:59:39.987Z,3
2023-02-27T11:00:40.005Z,3
2023-02-27T11:01:40.008Z,3
2023-02-27T11:02:39.986Z,3
2023-02-27T11:03:41.438Z,3
2023-02-27T11:04:40.010Z,2.9
2023-02-27T11:05:39.987Z,2.9
2023-02-27T11:06:39.983Z,2.8
2023-02-27T11:07:39.981Z,2.8
2023-02-27T11:08:39.983Z,2.8
2023-02-27T11:09:39.981Z,2.8
2023-02-27T11:10:39.984Z,2.8
2023-02-27T11:11:39.987Z,2.8
2023-02-27T11:12:39.984Z,2.8
2023-02-27T11:13:40.006Z,2.8
2023-02-27T11:14:39.987Z,2.8
2023-02-27T11:15:40.080Z,2.8
2023-02-27T11:16:39.982Z,2.9
2023-02-27T11:17:39.977Z,3
2023-02-27T11:18:39.980Z,3.1
2023-02-27T11:19:39.995Z,3.1
2023-02-27T11:20:39.986Z,3.2
2023-02-27T11:21:39.993Z,3.2
2023-02-27T11:22:40.006Z,3.2
2023-02-27T11:23:39.987Z,3.3
2023-02-27T11:24:39.992Z,3.3
2023-02-27T11:25:39.991Z,3.3
2023-02-27T11:26:39.998Z,3.3
2023-02-27T11:27:40.007Z,3.3
2023-02-27T11:28:39.995Z,3.3
2023-02-27T11:29:39.994Z,3.3
2023-02-27T11:30:39.985Z,3.2
2023-02-27T11:31:40.004Z,3.2
2023-02-27T11:32:39.984Z,3.2
2023-02-27T11:33:39.985Z,3.2
2023-02-27T11:34:39.992Z,3.2
2023-02-27T11:35:40.018Z,3.2
2023-02-27T11:36:39.987Z,3.2
2023-02-27T11:37:40.064Z,3.2
2023-02-27T11:38:40.262Z,3.2
2023-02-27T11:39:39.994Z,3.3
2023-02-27T11:40:39.989Z,3.3
2023-02-27T11:41:39.993Z,3.4
2023-02-27T11:42:39.985Z,3.4
2023-02-27T11:43:40.032Z,3.5
2023-02-27T11:44:50.449Z,3.6
2023-02-27T11:46:05.358Z,3.6
2023-02-27T11:46:47.470Z,3.7
2023-02-27T11:47:40.010Z,3.8
2023-02-27T11:48:39.996Z,3.9
2023-02-27T11:49:39.991Z,4
2023-02-27T11:50:39.994Z,4.1
2023-02-27T11:51:39.994Z,4.3
2023-02-27T11:52:39.988Z,4.4
2023-02-27T11:53:39.987Z,4.4
2023-02-27T11:54:39.996Z,4.5
2023-02-27T11:55:39.993Z,4.6
2023-02-27T11:56:40.007Z,4.7
2023-02-27T11:57:39.986Z,4.7
2023-02-27T11:58:39.993Z,4.8
2023-02-27T11:59:39.987Z,4.8
2023-02-27T12:00:39.990Z,4.8
2023-02-27T12:01:39.983Z,4.8
2023-02-27T12:02:40.010Z,4.9
2023-02-27T12:03:40.010Z,4.9
2023-02-27T12:04:39.993Z,4.8
2023-02-27T12:05:39.988Z,4.8
2023-02-27T12:06:39.990Z,4.8
2023-02-27T12:07:40.129Z,4.7
2023-02-27T12:08:40.418Z,4.7
2023-02-27T12:09:40.477Z,4.6
2023-02-27T12:10:39.996Z,4.6
2023-02-27T12:11:40.229Z,4.5
2023-02-27T12:12:40.323Z,4.5
2023-02-27T12:13:40.288Z,4.4
2023-02-27T12:14:40.032Z,4.4
2023-02-27T12:15:39.992Z,4.4
2023-02-27T12:16:40.055Z,4.4
2023-02-27T12:17:39.983Z,4.3
2023-02-27T12:18:40.009Z,4.3
2023-02-27T12:19:40.008Z,4.3
2023-02-27T12:20:39.992Z,4.3
2023-02-27T12:21:39.987Z,4.2
2023-02-27T12:22:39.990Z,4.2
2023-02-27T12:23:40.017Z,4.2
2023-02-27T12:24:39.995Z,4.2
2023-02-27T12:25:39.999Z,4.2
2023-02-27T12:26:39.992Z,4.1
2023-02-27T12:27:40.560Z,4.1
2023-02-27T12:28:39.991Z,4
2023-02-27T12:29:39.991Z,4
2023-02-27T12:30:39.993Z,3.9
2023-02-27T12:31:40.244Z,3.9
2023-02-27T12:32:40.068Z,3.9
2023-02-27T12:33:39.997Z,3.9
2023-02-27T12:34:39.995Z,3.9
2023-02-27T12:35:39.999Z,3.8
2023-02-27T12:36:39.979Z,3.7
2023-02-27T12:37:39.997Z,3.6
2023-02-27T12:38:39.985Z,3.6
2023-02-27T12:39:39.989Z,3.6
2023-02-27T12:40:39.978Z,3.6
2023-02-27T12:41:39.978Z,3.6
2023-02-27T12:42:40.003Z,3.6
2023-02-27T12:43:39.982Z,3.6
2023-02-27T12:44:40.023Z,3.6
2023-02-27T12:45:40.032Z,3.6
2023-02-27T12:46:40.060Z,3.7
2023-02-27T12:47:40.256Z,3.8
2023-02-27T12:48:40.129Z,3.9
2023-02-27T12:49:39.983Z,4
2023-02-27T12:50:40.241Z,4.1
2023-02-27T12:51:39.983Z,4.2
2023-02-27T12:52:40.000Z,4.3
2023-02-27T12:53:40.203Z,4.4
2023-02-27T12:54:40.058Z,4.5
2023-02-27T12:55:40.187Z,4.7
2023-02-27T12:56:40.078Z,4.8
2023-02-27T12:57:40.271Z,4.9
2023-02-27T12:58:40.014Z,5
2023-02-27T12:59:39.981Z,5.2
2023-02-27T13:00:39.984Z,5.2
2023-02-27T13:01:40.003Z,5.3
2023-02-27T13:02:39.999Z,5.4
2023-02-27T13:03:40.047Z,5.4
2023-02-27T13:04:40.013Z,5.4
2023-02-27T13:05:39.993Z,5.4
2023-02-27T13:06:40.004Z,5.3
2023-02-27T13:07:39.988Z,5.2
2023-02-27T13:08:39.995Z,5.2
2023-02-27T13:09:39.985Z,5.2
2023-02-27T13:10:40.005Z,5.1
2023-02-27T13:11:40.006Z,4.9
2023-02-27T13:12:40.012Z,4.8
2023-02-27T13:13:39.998Z,4.8
2023-02-27T13:14:39.987Z,4.7
2023-02-27T13:15:40.014Z,4.6
2023-02-27T13:16:40.126Z,4.5
2023-02-27T13:17:40.003Z,4.4
2023-02-27T13:18:39.987Z,4.4
2023-02-27T13:19:40.000Z,4.3
2023-02-27T13:20:39.990Z,4.3
2023-02-27T13:21:39.999Z,4.2
2023-02-27T13:22:40.004Z,4.2
2023-02-27T13:23:40.011Z,4.1
2023-02-27T13:24:39.987Z,4.1
2023-02-27T13:25:39.984Z,4.2
2023-02-27T13:26:39.984Z,4.2
2023-02-27T13:27:40.008Z,4.3
2023-02-27T13:28:39.990Z,4.4
2023-02-27T13:29:39.997Z,4.4